Time;durP1;ratioP1;P1;durP2;ratioP2;P2;SDS_P1;SDS_P2;PMS_P1;PMS_P2;Temp;Humidity;BMP_temperature;BMP_pressure;BME280_temperature;BME280_humidity;BME280_pressure;Samples;Min_cycle;Max_cycle;Signal;HPM_P1;HPM_P2
2023/12/26 15:38:37;;;;;;;10.80;3.47;;;9.60;99.80;;;;;;10265373;27;21399;-66
2023/12/26 15:44:01;;;;;;;9.93;2.63;;;9.70;99.90;;;;;;10211161;28;20313;-70
2023/12/26 15:49:33;;;;;;;10.90;3.10;;;9.80;99.90;;;;;;10215640;28;21300;-66
2023/12/26 15:54:57;;;;;;;9.93;3.00;;;9.90;99.90;;;;;;10233009;28;21256;-70
2023/12/26 16:00:20;;;;;;;13.70;3.40;;;10.00;99.90;;;;;;10244787;28;20281;-72
2023/12/26 16:05:46;;;;;;;12.20;3.13;;;10.10;99.90;;;;;;10217639;28;20732;-73
2023/12/26 16:11:35;;;;;;;13.10;3.93;;;10.10;99.90;;;;;;10213700;28;20298;-72
2023/12/26 16:17:01;;;;;;;9.03;2.67;;;10.20;99.90;;;;;;10288889;28;20258;-60
2023/12/26 16:22:31;;;;;;;8.00;2.23;;;10.20;99.90;;;;;;10325136;28;20565;-63
2023/12/26 16:27:56;;;;;;;11.97;2.90;;;10.20;99.90;;;;;;10222404;28;20223;-66
2023/12/26 16:33:23;;;;;;;7.83;1.97;;;10.20;99.90;;;;;;10229920;28;21015;-64
2023/12/26 16:38:47;;;;;;;5.40;1.63;;;10.20;99.90;;;;;;10183336;28;20223;-64
2023/12/26 16:44:16;;;;;;;9.57;2.03;;;10.20;99.90;;;;;;10234298;28;20597;-64
2023/12/26 16:55:23;;;;;;;6.67;2.37;;;10.20;99.30;;;;;;10141352;28;20215;-62
2023/12/26 17:00:48;;;;;;;6.40;1.67;;;10.10;99.90;;;;;;10170913;28;20745;-65
2023/12/26 17:06:11;;;;;;;8.10;2.00;;;10.10;99.90;;;;;;10172646;28;20622;-65
2023/12/26 17:11:40;;;;;;;9.07;2.45;;;10.10;99.90;;;;;;10156929;28;20310;-64
2023/12/26 17:17:08;;;;;;;9.63;2.30;;;10.20;99.90;;;;;;10162199;28;20227;-63
2023/12/26 17:22:31;;;;;;;9.77;2.60;;;10.20;99.90;;;;;;10170353;28;20508;-63
2023/12/26 17:28:12;;;;;;;7.37;2.80;;;10.20;99.90;;;;;;10165407;28;20259;-62
2023/12/26 17:33:41;;;;;;;11.65;2.75;;;10.20;99.90;;;;;;10159214;28;20243;-65
2023/12/26 17:39:06;;;;;;;9.90;2.30;;;10.20;99.90;;;;;;10189212;28;20227;-65
2023/12/26 17:44:31;;;;;;;8.40;2.13;;;10.10;99.90;;;;;;10201173;28;20925;-64
2023/12/26 17:50:04;;;;;;;9.40;2.10;;;10.10;99.90;;;;;;10198910;28;20231;-63
2023/12/26 17:55:27;;;;;;;8.40;2.08;;;10.10;99.80;;;;;;10194943;28;20599;-63
2023/12/26 18:01:03;;;;;;;8.43;2.80;;;10.10;99.60;;;;;;10167310;28;20750;-62
2023/12/26 18:06:29;;;;;;;8.37;2.50;;;10.10;98.90;;;;;;10185429;28;20625;-63
2023/12/26 18:11:53;;;;;;;12.37;3.27;;;10.10;99.90;;;;;;10171504;28;20243;-65
2023/12/26 18:17:18;;;;;;;9.27;3.20;;;10.10;99.90;;;;;;10181581;28;20945;-66
2023/12/26 18:22:47;;;;;;;8.13;2.70;;;10.20;99.90;;;;;;10181980;28;20332;-63
2023/12/26 18:28:16;;;;;;;9.63;3.53;;;10.20;99.90;;;;;;10189095;28;20565;-62
2023/12/26 18:33:43;;;;;;;12.97;3.50;;;10.20;99.90;;;;;;10179133;28;20370;-65
2023/12/26 18:39:10;;;;;;;12.30;4.20;;;10.20;99.90;;;;;;10176463;28;20465;-65
2023/12/26 18:44:36;;;;;;;9.93;3.80;;;10.30;97.90;;;;;;10212447;28;20942;-66
2023/12/26 18:50:14;;;;;;;10.53;3.23;;;10.40;99.30;;;;;;10191753;28;20384;-65
2023/12/26 18:55:52;;;;;;;9.83;4.13;;;10.30;99.90;;;;;;10310806;28;20216;-64
2023/12/26 19:01:18;;;;;;;8.53;3.40;;;10.30;99.90;;;;;;10092347;28;20238;-65
2023/12/26 19:06:54;;;;;;;8.50;3.23;;;10.30;99.50;;;;;;10047278;28;20627;-62
2023/12/26 19:12:29;;;;;;;8.87;3.00;;;10.20;99.60;;;;;;10067749;28;20242;-64
2023/12/26 19:17:55;;;;;;;9.47;3.00;;;10.20;99.90;;;;;;10054586;28;20811;-63
2023/12/26 19:23:21;;;;;;;9.10;3.20;;;10.20;99.70;;;;;;10045728;28;20625;-64
2023/12/26 19:29:08;;;;;;;7.80;3.07;;;10.20;99.90;;;;;;10045161;28;20246;-64
2023/12/26 19:34:40;;;;;;;12.53;3.10;;;10.20;99.60;;;;;;10129517;28;20923;-63
2023/12/26 19:40:07;;;;;;;10.70;3.47;;;10.20;99.90;;;;;;10087649;28;21184;-63
2023/12/26 19:45:32;;;;;;;8.70;3.30;;;10.20;99.90;;;;;;10063430;28;20711;-64
2023/12/26 19:51:17;;;;;;;8.40;3.20;;;10.20;99.90;;;;;;10156323;28;20227;-67
2023/12/26 19:56:42;;;;;;;6.03;3.20;;;10.10;99.60;;;;;;10091149;28;20791;-68
2023/12/26 20:02:17;;;;;;;7.57;3.17;;;10.10;99.70;;;;;;10063797;28;20310;-66
2023/12/26 20:07:45;;;;;;;10.32;3.88;;;10.10;99.90;;;;;;10105990;28;20403;-66
2023/12/26 20:13:19;;;;;;;10.43;4.03;;;10.10;99.80;;;;;;10108589;28;20406;-65
2023/12/26 20:18:45;;;;;;;11.47;3.73;;;10.10;99.90;;;;;;10137930;28;20228;-66
2023/12/26 20:24:18;;;;;;;7.63;3.20;;;10.10;99.80;;;;;;10127234;28;20442;-69
2023/12/26 20:29:45;;;;;;;7.43;3.43;;;10.10;99.80;;;;;;10054954;28;20239;-69
2023/12/26 20:35:17;;;;;;;8.57;3.40;;;10.00;99.90;;;;;;10087699;28;20315;-68
2023/12/26 20:40:43;;;;;;;8.20;3.43;;;10.00;99.90;;;;;;10074749;28;20239;-69
2023/12/26 20:46:07;;;;;;;11.07;3.87;;;10.00;99.20;;;;;;10122126;28;20235;-63
2023/12/26 20:51:32;;;;;;;8.55;3.53;;;10.00;99.80;;;;;;10101698;28;20235;-63
2023/12/26 20:56:56;;;;;;;6.80;3.73;;;10.00;99.90;;;;;;10071140;28;20242;-65
2023/12/26 21:02:22;;;;;;;7.03;3.70;;;10.00;99.90;;;;;;10078286;28;20600;-70
2023/12/26 21:08:10;;;;;;;11.17;3.83;;;10.00;99.90;;;;;;10042294;28;20302;-69
2023/12/26 21:13:48;;;;;;;10.80;4.20;;;10.00;99.90;;;;;;10048515;28;20485;-70
2023/12/26 21:19:12;;;;;;;9.97;3.33;;;10.00;99.90;;;;;;10017462;28;20784;-69
2023/12/26 21:24:53;;;;;;;10.73;4.27;;;10.00;99.90;;;;;;10029872;28;20941;-68
2023/12/26 21:30:20;;;;;;;10.47;3.90;;;10.00;99.90;;;;;;10013158;28;20621;-70
2023/12/26 21:35:50;;;;;;;9.77;4.00;;;9.90;99.90;;;;;;10169220;28;20231;-68
2023/12/26 21:41:21;;;;;;;11.17;3.77;;;9.90;99.90;;;;;;10107312;28;20758;-67
2023/12/26 21:46:46;;;;;;;15.73;4.07;;;9.80;99.90;;;;;;10046073;28;20845;-68
2023/12/26 21:52:09;;;;;;;12.83;4.10;;;9.80;99.90;;;;;;9997916;28;20785;-68
2023/12/26 21:57:59;;;;;;;9.87;3.60;;;9.80;99.90;;;;;;10011330;28;20777;-69
2023/12/26 22:04:11;;;;;;;11.10;4.30;;;9.70;99.90;;;;;;10028139;28;20236;-67
2023/12/26 22:09:47;;;;;;;10.23;4.80;;;9.70;99.90;;;;;;10034728;28;21192;-68
2023/12/26 22:21:32;;;;;;;15.17;6.50;;;9.60;99.90;;;;;;10061242;28;20236;-71
2023/12/26 22:27:04;;;;;;;12.50;5.77;;;9.50;99.90;;;;;;10047202;28;20251;-68
2023/12/26 22:32:43;;;;;;;13.73;5.20;;;9.50;99.90;;;;;;10016999;28;20243;-67
2023/12/26 22:38:19;;;;;;;9.33;4.63;;;9.40;99.90;;;;;;10101281;28;20291;-69
2023/12/26 22:43:42;;;;;;;13.20;5.40;;;9.40;99.90;;;;;;10155332;28;20251;-68
2023/12/26 22:49:07;;;;;;;13.63;6.03;;;9.30;99.90;;;;;;9997781;28;20669;-68
2023/12/26 22:54:30;;;;;;;12.03;4.43;;;9.30;99.90;;;;;;10052846;28;20251;-67
2023/12/26 22:59:53;;;;;;;13.03;4.43;;;9.20;99.90;;;;;;10024910;28;20368;-69
2023/12/26 23:05:22;;;;;;;8.20;4.10;;;9.20;99.90;;;;;;10034195;28;20408;-69
2023/12/26 23:10:49;;;;;;;11.33;5.33;;;9.20;99.90;;;;;;10040828;28;20248;-67
2023/12/26 23:16:16;;;;;;;12.77;4.47;;;9.20;99.90;;;;;;10042470;28;20204;-70
2023/12/26 23:21:42;;;;;;;13.47;5.37;;;9.20;99.90;;;;;;10003833;28;20326;-66
2023/12/26 23:27:06;;;;;;;10.60;4.73;;;9.10;99.90;;;;;;10064683;28;20236;-66
2023/12/26 23:32:30;;;;;;;11.50;4.10;;;9.10;99.90;;;;;;10024472;28;20244;-66
2023/12/26 23:38:21;;;;;;;12.43;4.70;;;9.20;99.90;;;;;;10015792;28;20671;-66
2023/12/26 23:43:51;;;;;;;12.97;4.37;;;9.20;99.90;;;;;;10038707;28;20920;-65
2023/12/26 23:49:14;;;;;;;8.67;4.13;;;9.20;99.90;;;;;;10094291;28;20212;-66
2023/12/26 23:54:42;;;;;;;9.03;4.13;;;9.10;99.90;;;;;;10079832;28;20396;-66
